createdAt,value
2023-06-25T00:00:11.496Z,79.60
2023-06-25T00:00:45.596Z,79.17
2023-06-25T00:01:17.207Z,79.13
2023-06-25T00:01:48.805Z,79.07
2023-06-25T00:02:20.424Z,80.06
2023-06-25T00:02:51.926Z,79.46
2023-06-25T00:03:24.162Z,80.19
2023-06-25T00:03:55.771Z,79.92
2023-06-25T00:04:27.314Z,80.56
2023-06-25T00:04:58.730Z,79.50
2023-06-25T00:05:30.131Z,80.42
2023-06-25T00:06:01.575Z,79.95
2023-06-25T00:06:32.948Z,80.17
2023-06-25T00:07:04.632Z,80.31
2023-06-25T00:07:36.407Z,79.83
2023-06-25T00:08:07.913Z,80.01
2023-06-25T00:08:39.368Z,80.59
2023-06-25T00:09:10.862Z,80.68
2023-06-25T00:09:53.407Z,79.80
2023-06-25T00:10:24.825Z,80.78
2023-06-25T00:10:56.302Z,79.78
2023-06-25T00:11:27.766Z,80.52
2023-06-25T00:11:59.184Z,80.23
2023-06-25T00:12:30.557Z,79.88
2023-06-25T00:13:02.069Z,80.33
2023-06-25T00:13:33.626Z,80.40
2023-06-25T00:14:05.325Z,80.54
2023-06-25T00:14:36.812Z,80.73
2023-06-25T00:15:11.938Z,80.90
2023-06-25T00:15:43.375Z,80.45
2023-06-25T00:16:14.875Z,80.29
2023-06-25T00:16:46.339Z,80.51
2023-06-25T00:17:18.422Z,80.55
2023-06-25T00:17:50.528Z,80.66
2023-06-25T00:18:22.110Z,81.09
2023-06-25T00:18:53.509Z,80.84
2023-06-25T00:19:26.677Z,80.38
2023-06-25T00:19:58.734Z,80.89
2023-06-25T00:20:30.152Z,81.09
2023-06-25T00:21:02.407Z,80.30
2023-06-25T00:21:33.929Z,80.66
2023-06-25T00:22:05.709Z,81.16
2023-06-25T00:22:37.091Z,80.91
2023-06-25T00:23:08.575Z,80.60
2023-06-25T00:23:40.288Z,80.67
2023-06-25T00:24:11.822Z,80.16
2023-06-25T00:24:43.312Z,81.11
2023-06-25T00:25:16.036Z,80.74
2023-06-25T00:25:47.472Z,80.22
2023-06-25T00:26:18.989Z,80.58
2023-06-25T00:26:50.426Z,80.89
2023-06-25T00:27:21.854Z,81.54
2023-06-25T00:27:54.070Z,81.04
2023-06-25T00:28:25.465Z,81.62
2023-06-25T00:28:56.901Z,81.54
2023-06-25T00:29:28.286Z,81.53
2023-06-25T00:30:01.435Z,82.16
2023-06-25T00:30:32.915Z,81.35
2023-06-25T00:31:06.156Z,81.76
2023-06-25T00:31:38.468Z,81.10
2023-06-25T00:32:10.050Z,81.82
2023-06-25T00:32:42.820Z,81.05
2023-06-25T00:33:14.316Z,81.21
2023-06-25T00:33:50.448Z,81.32
2023-06-25T00:34:21.951Z,81.66
2023-06-25T00:34:58.659Z,81.66
2023-06-25T00:35:45.108Z,81.04
2023-06-25T00:36:16.708Z,80.85
2023-06-25T00:36:52.863Z,81.03
2023-06-25T00:37:24.681Z,81.38
2023-06-25T00:37:58.050Z,80.98
2023-06-25T00:38:29.517Z,81.28
2023-06-25T00:39:03.625Z,81.62
2023-06-25T00:39:35.070Z,81.25
2023-06-25T00:40:09.555Z,81.85
2023-06-25T00:40:40.990Z,81.90
2023-06-25T00:41:13.264Z,81.92
2023-06-25T00:41:44.758Z,80.54
2023-06-25T00:42:17.251Z,81.12
2023-06-25T00:42:50.231Z,81.84
2023-06-25T00:43:22.510Z,81.28
2023-06-25T00:43:54.232Z,81.40
2023-06-25T00:44:29.502Z,81.04
2023-06-25T00:45:01.237Z,80.98
2023-06-25T00:45:34.251Z,81.17
2023-06-25T00:46:05.682Z,81.99
2023-06-25T00:46:37.897Z,81.35
2023-06-25T00:47:13.292Z,81.05
2023-06-25T00:47:46.669Z,80.99
2023-06-25T00:48:18.290Z,81.53
2023-06-25T00:48:49.908Z,81.24
2023-06-25T00:49:21.373Z,81.86
2023-06-25T00:49:52.810Z,81.31
2023-06-25T00:50:24.428Z,81.65
2023-06-25T00:51:02.088Z,82.01
2023-06-25T00:51:36.521Z,81.17
2023-06-25T00:52:11.263Z,81.91
2023-06-25T00:52:42.798Z,81.73
2023-06-25T00:53:14.859Z,81.66
2023-06-25T00:53:46.543Z,81.91
2023-06-25T00:54:18.327Z,81.94
2023-06-25T00:54:49.765Z,81.33
2023-06-25T00:55:21.626Z,81.67
2023-06-25T00:55:53.145Z,82.10
2023-06-25T00:56:32.183Z,81.14
2023-06-25T00:57:05.097Z,82.48
2023-06-25T00:57:37.040Z,82.24
2023-06-25T00:58:08.698Z,81.74
2023-06-25T00:58:41.559Z,81.69
2023-06-25T00:59:13.021Z,81.93
2023-06-25T00:59:46.039Z,81.50
2023-06-25T01:00:20.979Z,82.46
2023-06-25T01:00:57.632Z,81.69
2023-06-25T01:01:55.549Z,81.71
2023-06-25T01:02:35.518Z,81.73
2023-06-25T01:03:14.111Z,82.15
2023-06-25T01:03:55.936Z,82.49
2023-06-25T01:04:34.702Z,82.28
2023-06-25T01:05:12.932Z,82.49
2023-06-25T01:06:11.103Z,82.01
2023-06-25T01:06:48.464Z,81.87
2023-06-25T01:07:20.159Z,81.34
2023-06-25T01:07:54.380Z,82.20
2023-06-25T01:08:31.323Z,82.48
2023-06-25T01:09:03.661Z,82.33
2023-06-25T01:09:35.887Z,81.88
2023-06-25T01:10:08.788Z,82.23
2023-06-25T01:10:40.411Z,81.90
2023-06-25T01:11:12.617Z,82.55
2023-06-25T01:12:04.038Z,82.65
2023-06-25T01:12:36.797Z,82.72
2023-06-25T01:13:08.220Z,82.21
2023-06-25T01:13:39.720Z,83.23
2023-06-25T01:14:11.116Z,82.71
2023-06-25T01:14:43.101Z,83.33
2023-06-25T01:15:14.573Z,82.90
2023-06-25T01:15:46.948Z,83.44
2023-06-25T01:16:18.471Z,82.90
2023-06-25T01:16:50.108Z,83.27
2023-06-25T01:17:21.848Z,83.14
2023-06-25T01:17:55.164Z,82.65
2023-06-25T01:18:26.834Z,82.66
2023-06-25T01:19:05.077Z,82.87
2023-06-25T01:19:37.903Z,82.85
2023-06-25T01:20:13.057Z,82.17
2023-06-25T01:20:44.649Z,82.26
2023-06-25T01:21:18.235Z,82.42
2023-06-25T01:21:49.822Z,82.53
2023-06-25T01:22:30.880Z,82.93
2023-06-25T01:23:02.403Z,82.81
2023-06-25T01:23:34.008Z,82.85
2023-06-25T01:24:05.895Z,82.49
2023-06-25T01:24:37.386Z,82.76
2023-06-25T01:25:10.133Z,82.60
2023-06-25T01:25:41.762Z,83.05
2023-06-25T01:26:13.247Z,83.12
2023-06-25T01:26:45.278Z,82.64
2023-06-25T01:27:16.667Z,82.18
2023-06-25T01:27:48.653Z,82.56
2023-06-25T01:28:21.557Z,82.55
2023-06-25T01:28:57.132Z,82.18
2023-06-25T01:29:29.394Z,82.51
2023-06-25T01:30:01.543Z,82.81
2023-06-25T01:30:33.018Z,82.04
2023-06-25T01:31:04.736Z,82.50
2023-06-25T01:31:36.201Z,82.46
2023-06-25T01:32:09.300Z,83.21
2023-06-25T01:32:42.558Z,82.79
2023-06-25T01:33:16.999Z,82.39
2023-06-25T01:33:48.397Z,83.13
2023-06-25T01:34:21.180Z,82.86
2023-06-25T01:34:52.670Z,83.51
2023-06-25T01:35:25.586Z,82.74
2023-06-25T01:35:56.938Z,83.11
2023-06-25T01:36:28.396Z,82.98
2023-06-25T01:36:59.874Z,83.29
2023-06-25T01:37:32.108Z,83.08
2023-06-25T01:38:03.733Z,83.77
2023-06-25T01:38:35.126Z,83.50
2023-06-25T01:39:07.963Z,83.54
2023-06-25T01:39:39.367Z,83.17
2023-06-25T01:40:11.397Z,83.71
2023-06-25T01:40:43.076Z,83.92
2023-06-25T01:41:14.786Z,84.35
2023-06-25T01:41:47.541Z,83.02
2023-06-25T01:42:19.185Z,83.53
2023-06-25T01:42:50.596Z,83.00
2023-06-25T01:43:22.003Z,83.74
2023-06-25T01:43:53.488Z,82.87
2023-06-25T01:44:30.936Z,83.77
2023-06-25T01:45:03.030Z,83.04
2023-06-25T01:45:34.724Z,83.51
2023-06-25T01:46:06.491Z,83.18
2023-06-25T01:46:38.023Z,83.86
2023-06-25T01:47:09.510Z,84.12
2023-06-25T01:47:42.594Z,83.78
2023-06-25T01:48:14.996Z,83.29
2023-06-25T01:48:46.437Z,83.45
2023-06-25T01:49:30.267Z,83.08
2023-06-25T01:50:03.734Z,83.15
2023-06-25T01:50:35.121Z,84.09
2023-06-25T01:51:06.554Z,83.24
2023-06-25T01:51:38.553Z,83.85
2023-06-25T01:52:10.301Z,83.45
2023-06-25T01:52:41.696Z,83.70
2023-06-25T01:53:13.109Z,84.06
2023-06-25T01:53:44.511Z,83.90
2023-06-25T01:54:16.242Z,83.69
2023-06-25T01:54:47.641Z,83.88
2023-06-25T01:55:19.329Z,84.44
2023-06-25T01:55:50.733Z,84.09
2023-06-25T01:56:22.251Z,84.34
2023-06-25T01:56:54.016Z,84.19
2023-06-25T01:57:25.445Z,84.00
2023-06-25T01:57:56.898Z,84.57
2023-06-25T01:58:28.367Z,84.22
2023-06-25T01:58:59.842Z,84.43
2023-06-25T01:59:35.227Z,84.34
2023-06-25T02:00:12.251Z,84.20
2023-06-25T02:00:43.785Z,84.67
2023-06-25T02:01:16.448Z,84.06
2023-06-25T02:01:48.120Z,84.03
2023-06-25T02:02:19.733Z,84.55
2023-06-25T02:02:51.265Z,83.67
2023-06-25T02:03:22.828Z,83.96
2023-06-25T02:03:54.356Z,84.50
2023-06-25T02:04:25.994Z,84.38
2023-06-25T02:04:57.378Z,84.07
2023-06-25T02:05:28.784Z,84.71
2023-06-25T02:06:00.184Z,85.02
2023-06-25T02:06:31.710Z,84.23
2023-06-25T02:07:03.348Z,84.13
2023-06-25T02:07:34.817Z,85.46
2023-06-25T02:08:06.333Z,84.90
2023-06-25T02:08:37.847Z,84.98
2023-06-25T02:09:09.317Z,85.66
2023-06-25T02:09:40.716Z,85.28
2023-06-25T02:10:13.367Z,85.06
2023-06-25T02:10:44.853Z,85.34
2023-06-25T02:11:16.332Z,84.75
2023-06-25T02:11:47.855Z,84.90
2023-06-25T02:12:19.227Z,84.23
2023-06-25T02:12:50.652Z,84.50
2023-06-25T02:13:22.106Z,85.04
2023-06-25T02:13:53.881Z,84.31
2023-06-25T02:14:25.291Z,84.83
2023-06-25T02:14:56.705Z,84.80
2023-06-25T02:15:28.183Z,84.77
2023-06-25T02:15:59.716Z,84.32
2023-06-25T02:16:31.276Z,84.39
2023-06-25T02:17:03.011Z,84.58
2023-06-25T02:17:34.479Z,84.73
2023-06-25T02:18:06.427Z,85.32
2023-06-25T02:18:38.593Z,84.93
2023-06-25T02:19:09.982Z,85.08
2023-06-25T02:19:41.764Z,85.42
2023-06-25T02:20:13.169Z,85.28
2023-06-25T02:20:44.625Z,84.99
2023-06-25T02:21:16.036Z,85.45
2023-06-25T02:21:47.442Z,85.19
2023-06-25T02:22:18.904Z,85.32
2023-06-25T02:22:51.391Z,85.28
2023-06-25T02:23:22.920Z,85.81
2023-06-25T02:23:54.306Z,84.68
2023-06-25T02:24:25.818Z,85.20
2023-06-25T02:24:57.277Z,85.46
2023-06-25T02:25:28.661Z,85.24
2023-06-25T02:26:00.088Z,84.55
2023-06-25T02:26:31.590Z,84.71
2023-06-25T02:27:03.128Z,85.13
2023-06-25T02:27:34.627Z,84.45
2023-06-25T02:28:06.048Z,84.89
2023-06-25T02:28:37.471Z,85.00
2023-06-25T02:29:09.009Z,84.50
2023-06-25T02:29:40.407Z,83.92
2023-06-25T02:30:12.365Z,84.75
2023-06-25T02:30:44.245Z,84.63
2023-06-25T02:31:15.905Z,84.73
2023-06-25T02:31:47.430Z,84.90
2023-06-25T02:32:18.873Z,85.56
2023-06-25T02:32:50.338Z,85.31
2023-06-25T02:33:21.789Z,85.28
2023-06-25T02:33:53.175Z,85.44
2023-06-25T02:34:24.648Z,85.14
2023-06-25T02:34:56.128Z,85.12
2023-06-25T02:35:27.816Z,85.51
2023-06-25T02:35:59.313Z,85.74
2023-06-25T02:36:30.799Z,85.19
2023-06-25T02:37:15.198Z,84.86
2023-06-25T02:37:46.595Z,85.02
2023-06-25T02:38:18.123Z,85.13
2023-06-25T02:38:49.521Z,85.52
2023-06-25T02:39:20.954Z,85.84
2023-06-25T02:39:52.380Z,85.49
2023-06-25T02:40:23.934Z,85.02
2023-06-25T02:40:55.362Z,85.39
2023-06-25T02:41:26.760Z,85.46
2023-06-25T02:41:58.182Z,85.42
2023-06-25T02:42:29.625Z,85.91
2023-06-25T02:43:01.066Z,86.10
2023-06-25T02:43:32.478Z,85.91
2023-06-25T02:44:03.993Z,86.17
2023-06-25T02:44:35.743Z,86.50
2023-06-25T02:45:07.483Z,86.06
2023-06-25T02:45:39.069Z,85.55
2023-06-25T02:46:10.707Z,86.04
2023-06-25T02:46:42.189Z,85.67
2023-06-25T02:47:13.714Z,86.21
2023-06-25T02:47:45.399Z,85.38
2023-06-25T02:48:18.001Z,85.44
2023-06-25T02:48:49.555Z,86.02
2023-06-25T02:49:21.082Z,86.29
2023-06-25T02:49:52.603Z,85.69
2023-06-25T02:50:24.011Z,86.32
2023-06-25T02:50:55.419Z,85.40
2023-06-25T02:51:27.714Z,85.45
2023-06-25T02:51:59.265Z,85.74
2023-06-25T02:52:30.705Z,85.98
2023-06-25T02:53:02.142Z,86.13
2023-06-25T02:53:33.588Z,86.19
2023-06-25T02:54:05.072Z,86.27
2023-06-25T02:54:36.486Z,86.69
2023-06-25T02:55:08.462Z,86.44
2023-06-25T02:55:40.187Z,86.52
2023-06-25T02:56:11.726Z,86.08
2023-06-25T02:56:43.211Z,86.40
2023-06-25T02:57:14.909Z,86.54
2023-06-25T02:57:46.341Z,86.77
2023-06-25T02:58:17.775Z,86.34
2023-06-25T02:58:49.184Z,86.55
2023-06-25T02:59:20.965Z,86.31
2023-06-25T02:59:52.393Z,86.62
2023-06-25T03:00:23.900Z,86.21
2023-06-25T03:00:55.392Z,87.32
2023-06-25T03:01:26.815Z,87.07
2023-06-25T03:01:58.387Z,86.69
2023-06-25T03:02:30.064Z,87.12
2023-06-25T03:03:01.861Z,87.14
2023-06-25T03:03:33.402Z,87.21
2023-06-25T03:04:04.892Z,87.12
2023-06-25T03:04:36.306Z,87.84
2023-06-25T03:05:08.780Z,87.79
2023-06-25T03:05:40.491Z,87.67
2023-06-25T03:06:12.316Z,87.96
2023-06-25T03:06:44.112Z,87.95
2023-06-25T03:07:15.816Z,87.55
2023-06-25T03:07:54.992Z,87.85
2023-06-25T03:08:26.476Z,86.83
2023-06-25T03:08:57.950Z,87.11
2023-06-25T03:09:29.395Z,86.92
2023-06-25T03:10:00.824Z,86.85
2023-06-25T03:10:34.364Z,87.08
2023-06-25T03:11:05.806Z,87.56
2023-06-25T03:11:37.334Z,87.00
2023-06-25T03:12:09.772Z,87.06
2023-06-25T03:12:41.252Z,87.04
2023-06-25T03:13:12.877Z,86.97
2023-06-25T03:13:44.298Z,87.33
2023-06-25T03:14:29.918Z,87.00
2023-06-25T03:15:06.598Z,87.21
2023-06-25T03:15:38.189Z,87.51
2023-06-25T03:16:09.774Z,87.49
2023-06-25T03:16:41.646Z,87.42
2023-06-25T03:17:13.153Z,87.01
2023-06-25T03:17:45.476Z,87.22
2023-06-25T03:18:16.978Z,87.67
2023-06-25T03:18:48.373Z,87.13
2023-06-25T03:19:19.806Z,86.86
2023-06-25T03:19:51.216Z,87.07
2023-06-25T03:20:22.645Z,86.94
2023-06-25T03:20:54.118Z,87.37
2023-06-25T03:21:25.750Z,87.36
2023-06-25T03:21:57.303Z,86.88
2023-06-25T03:22:28.728Z,87.01
2023-06-25T03:23:00.185Z,87.91
2023-06-25T03:23:31.643Z,87.57
2023-06-25T03:24:03.222Z,87.81
2023-06-25T03:24:34.723Z,87.46
2023-06-25T03:25:07.397Z,87.32
2023-06-25T03:25:38.991Z,87.40
2023-06-25T03:26:10.641Z,87.14
2023-06-25T03:26:42.264Z,87.51
2023-06-25T03:27:13.654Z,87.08
2023-06-25T03:27:45.234Z,86.78
2023-06-25T03:28:16.726Z,87.34
2023-06-25T03:28:48.191Z,87.72
2023-06-25T03:29:19.643Z,87.39
2023-06-25T03:29:51.070Z,87.72
2023-06-25T03:30:22.516Z,86.96
2023-06-25T03:30:53.994Z,87.60
2023-06-25T03:31:25.657Z,87.78
2023-06-25T03:31:57.123Z,87.77
2023-06-25T03:32:28.616Z,88.00
2023-06-25T03:33:00.241Z,88.18
2023-06-25T03:33:31.751Z,88.62
2023-06-25T03:34:03.221Z,87.76
2023-06-25T03:34:34.612Z,88.39
2023-06-25T03:35:06.207Z,88.72
2023-06-25T03:35:37.777Z,88.45
2023-06-25T03:36:09.517Z,88.09
2023-06-25T03:36:40.933Z,88.25
2023-06-25T03:37:12.629Z,88.39
2023-06-25T03:37:44.032Z,88.62
2023-06-25T03:38:15.447Z,88.55
2023-06-25T03:38:46.874Z,88.26
2023-06-25T03:39:19.410Z,88.59
2023-06-25T03:39:50.808Z,88.62
2023-06-25T03:40:22.182Z,88.27
2023-06-25T03:40:53.629Z,88.63
2023-06-25T03:41:25.923Z,88.63
2023-06-25T03:41:57.359Z,88.76
2023-06-25T03:42:28.826Z,88.63
2023-06-25T03:43:00.234Z,88.89
2023-06-25T03:43:31.850Z,88.75
2023-06-25T03:44:03.271Z,88.51
2023-06-25T03:44:34.740Z,88.76
2023-06-25T03:45:06.793Z,88.89
2023-06-25T03:45:38.559Z,88.25
2023-06-25T03:46:10.303Z,88.17
2023-06-25T03:46:41.696Z,88.52
2023-06-25T03:47:13.192Z,88.78
2023-06-25T03:47:44.729Z,88.89
2023-06-25T03:48:16.422Z,88.46
2023-06-25T03:48:48.173Z,88.59
2023-06-25T03:49:19.702Z,88.94
2023-06-25T03:49:51.172Z,89.05
2023-06-25T03:50:22.660Z,89.01
2023-06-25T03:50:54.102Z,89.32
2023-06-25T03:51:25.561Z,89.14
2023-06-25T03:51:57.323Z,88.91
2023-06-25T03:52:28.785Z,88.96
2023-06-25T03:53:01.924Z,88.81
2023-06-25T03:53:33.317Z,88.49
2023-06-25T03:54:04.742Z,89.17
2023-06-25T03:54:36.126Z,89.05
2023-06-25T03:55:07.938Z,89.27
2023-06-25T03:55:39.508Z,88.96
2023-06-25T03:56:11.156Z,88.75
2023-06-25T03:56:42.527Z,88.70
2023-06-25T03:57:13.978Z,89.18
2023-06-25T03:57:45.427Z,89.27
2023-06-25T03:58:17.211Z,89.62
2023-06-25T03:58:48.681Z,88.84
2023-06-25T03:59:20.052Z,88.78
2023-06-25T03:59:51.564Z,88.57
2023-06-25T04:00:23.050Z,88.54
2023-06-25T04:00:54.976Z,89.00
2023-06-25T04:01:26.431Z,88.82
2023-06-25T04:01:58.175Z,88.54
2023-06-25T04:02:29.619Z,89.37
2023-06-25T04:03:01.150Z,89.01
2023-06-25T04:03:32.559Z,88.99
2023-06-25T04:04:04.096Z,89.42
2023-06-25T04:04:35.774Z,88.62
2023-06-25T04:05:07.555Z,89.32
2023-06-25T04:05:39.129Z,89.52
2023-06-25T04:06:10.692Z,89.06
2023-06-25T04:06:42.169Z,89.56
2023-06-25T04:07:13.653Z,89.33
2023-06-25T04:07:45.161Z,89.33
2023-06-25T04:08:16.681Z,89.98
2023-06-25T04:08:48.160Z,89.55
2023-06-25T04:09:19.918Z,90.13
2023-06-25T04:09:51.430Z,89.94
2023-06-25T04:10:22.982Z,90.25
2023-06-25T04:10:54.438Z,90.24
2023-06-25T04:11:25.901Z,90.27
2023-06-25T04:11:57.348Z,90.18
2023-06-25T04:12:28.767Z,90.61
2023-06-25T04:13:00.212Z,90.41
2023-06-25T04:13:31.642Z,90.56
2023-06-25T04:14:03.101Z,90.56
2023-06-25T04:14:34.553Z,90.80
2023-06-25T04:15:06.485Z,90.39
2023-06-25T04:15:38.257Z,90.43
2023-06-25T04:16:10.442Z,90.66
2023-06-25T04:16:41.894Z,90.97
2023-06-25T04:17:13.290Z,91.17
2023-06-25T04:17:44.831Z,89.82
2023-06-25T04:18:16.382Z,89.92
2023-06-25T04:18:47.762Z,89.91
2023-06-25T04:19:19.194Z,90.31
2023-06-25T04:19:50.685Z,89.79
2023-06-25T04:20:24.377Z,90.44
2023-06-25T04:20:56.350Z,90.54
2023-06-25T04:21:27.842Z,90.63
2023-06-25T04:21:59.304Z,90.96
2023-06-25T04:22:30.708Z,91.13
2023-06-25T04:23:02.164Z,90.40
2023-06-25T04:23:34.864Z,90.60
2023-06-25T04:24:06.692Z,91.18
2023-06-25T04:24:38.174Z,91.05
2023-06-25T04:25:09.814Z,91.33
2023-06-25T04:25:42.224Z,90.88
2023-06-25T04:26:13.719Z,90.40
2023-06-25T04:26:45.167Z,90.94
2023-06-25T04:27:16.699Z,90.93
2023-06-25T04:27:48.920Z,91.30
2023-06-25T04:28:20.337Z,92.42
2023-06-25T04:28:51.778Z,92.14
2023-06-25T04:29:23.147Z,91.82
2023-06-25T04:29:54.598Z,92.75
2023-06-25T04:30:26.141Z,92.38
2023-06-25T04:30:57.582Z,92.40
2023-06-25T04:31:29.163Z,92.36
2023-06-25T04:32:02.859Z,91.79
2023-06-25T04:32:34.526Z,92.12
2023-06-25T04:33:06.078Z,92.00
2023-06-25T04:33:42.476Z,92.11
2023-06-25T04:34:14.157Z,92.04
2023-06-25T04:34:45.697Z,91.59
2023-06-25T04:35:18.285Z,91.46
2023-06-25T04:35:49.757Z,90.95
2023-06-25T04:36:21.335Z,92.17
2023-06-25T04:36:52.752Z,92.30
2023-06-25T04:37:24.227Z,92.78
2023-06-25T04:37:55.628Z,92.63
2023-06-25T04:38:27.080Z,92.30
2023-06-25T04:38:58.461Z,92.41
2023-06-25T04:39:29.927Z,92.24
2023-06-25T04:40:06.744Z,91.91
2023-06-25T04:40:38.242Z,91.28
2023-06-25T04:41:09.704Z,93.48
2023-06-25T04:41:41.100Z,94.63
2023-06-25T04:42:12.555Z,94.46
2023-06-25T04:42:44.022Z,92.86
2023-06-25T04:43:15.502Z,92.46
2023-06-25T04:43:46.934Z,92.48
2023-06-25T04:44:18.342Z,91.90
2023-06-25T04:44:52.944Z,92.82
2023-06-25T04:45:24.475Z,92.96
2023-06-25T04:45:55.962Z,92.92
2023-06-25T04:46:27.480Z,93.27
2023-06-25T04:46:59.016Z,92.43
2023-06-25T04:47:30.457Z,92.55
2023-06-25T04:48:01.936Z,92.62
2023-06-25T04:48:33.341Z,92.16
2023-06-25T04:49:04.763Z,91.87
2023-06-25T04:49:36.224Z,92.70
2023-06-25T04:50:08.127Z,93.18
2023-06-25T04:50:39.551Z,91.86
2023-06-25T04:51:10.998Z,91.50
2023-06-25T04:51:46.427Z,92.94
2023-06-25T04:52:20.656Z,93.94
2023-06-25T04:52:55.117Z,94.45
2023-06-25T04:53:28.036Z,93.81
2023-06-25T04:53:59.430Z,93.06
2023-06-25T04:54:30.859Z,92.89
2023-06-25T04:55:02.366Z,93.54
2023-06-25T04:55:33.861Z,92.74
2023-06-25T04:56:05.688Z,93.28
2023-06-25T04:56:37.142Z,92.48
2023-06-25T04:57:08.698Z,91.83
2023-06-25T04:57:40.179Z,92.82
2023-06-25T04:58:11.705Z,93.21
2023-06-25T04:58:43.257Z,92.54
2023-06-25T04:59:14.655Z,93.28
2023-06-25T04:59:46.023Z,92.87
2023-06-25T05:00:17.547Z,93.35
2023-06-25T05:00:49.028Z,93.23
2023-06-25T05:01:21.630Z,92.77
2023-06-25T05:01:53.057Z,93.08
2023-06-25T05:02:24.651Z,92.66
2023-06-25T05:02:56.184Z,93.86
2023-06-25T05:03:27.692Z,93.63
2023-06-25T05:03:59.688Z,93.44
2023-06-25T05:04:31.222Z,92.40
2023-06-25T05:05:02.692Z,91.79
2023-06-25T05:05:34.315Z,91.74
2023-06-25T05:06:06.131Z,91.41
2023-06-25T05:06:37.584Z,91.19
2023-06-25T05:07:09.123Z,91.33
2023-06-25T05:07:40.663Z,91.63
2023-06-25T05:08:12.399Z,93.49
2023-06-25T05:08:43.801Z,93.20
2023-06-25T05:09:15.245Z,93.41
2023-06-25T05:09:46.699Z,92.38
2023-06-25T05:10:21.312Z,92.43
2023-06-25T05:10:52.938Z,92.60
2023-06-25T05:11:24.356Z,92.08
2023-06-25T05:11:55.882Z,93.45
2023-06-25T05:12:27.330Z,92.93
2023-06-25T05:13:01.127Z,93.00
2023-06-25T05:13:32.645Z,92.00
2023-06-25T05:14:04.028Z,92.23
2023-06-25T05:14:35.485Z,91.53
2023-06-25T05:15:07.480Z,93.34
2023-06-25T05:15:42.426Z,93.60
2023-06-25T05:16:13.912Z,93.45
2023-06-25T05:16:45.328Z,92.36
2023-06-25T05:17:16.698Z,93.06
2023-06-25T05:17:48.156Z,91.97
2023-06-25T05:18:19.653Z,92.18
2023-06-25T05:18:52.894Z,92.12
2023-06-25T05:19:24.655Z,92.01
2023-06-25T05:19:56.105Z,92.90
2023-06-25T05:20:27.552Z,93.86
2023-06-25T05:20:58.979Z,92.81
2023-06-25T05:21:30.449Z,93.00
2023-06-25T05:22:01.946Z,93.10
2023-06-25T05:22:33.349Z,93.32
2023-06-25T05:23:09.113Z,93.33
2023-06-25T05:23:45.308Z,94.13
2023-06-25T05:24:16.750Z,92.78
2023-06-25T05:24:48.174Z,92.82
2023-06-25T05:25:19.608Z,93.11
2023-06-25T05:25:51.067Z,92.14
2023-06-25T05:26:22.503Z,92.28
2023-06-25T05:26:53.886Z,92.87
2023-06-25T05:27:25.328Z,93.44
2023-06-25T05:27:56.716Z,92.58
2023-06-25T05:28:28.146Z,92.93
2023-06-25T05:29:00.476Z,92.44
2023-06-25T05:29:31.939Z,92.31
2023-06-25T05:30:03.948Z,91.58
2023-06-25T05:30:36.016Z,92.36
2023-06-25T05:31:08.718Z,91.80
2023-06-25T05:31:40.443Z,92.67
2023-06-25T05:32:11.978Z,92.48
2023-06-25T05:32:43.518Z,92.31
2023-06-25T05:33:14.971Z,91.75
2023-06-25T05:33:46.339Z,91.64
2023-06-25T05:34:17.744Z,91.30
2023-06-25T05:34:49.150Z,91.50
2023-06-25T05:35:20.657Z,91.01
2023-06-25T05:35:52.051Z,91.10
2023-06-25T05:36:23.573Z,89.81
2023-06-25T05:36:54.990Z,90.60
2023-06-25T05:37:26.425Z,90.28
2023-06-25T05:37:57.989Z,89.98
2023-06-25T05:38:29.409Z,90.62
2023-06-25T05:39:00.879Z,91.33
2023-06-25T05:39:32.360Z,90.42
2023-06-25T05:40:04.202Z,90.90
2023-06-25T05:40:35.686Z,91.17
2023-06-25T05:41:07.130Z,90.68
2023-06-25T05:41:40.945Z,90.43
2023-06-25T05:42:12.392Z,91.07
2023-06-25T05:42:43.828Z,90.29
2023-06-25T05:43:15.193Z,90.29
2023-06-25T05:43:46.605Z,89.83
2023-06-25T05:44:18.018Z,89.93
2023-06-25T05:44:49.382Z,90.09
2023-06-25T05:45:21.045Z,89.61
2023-06-25T05:45:52.429Z,89.28
2023-06-25T05:46:23.880Z,90.27
2023-06-25T05:46:56.094Z,89.33
2023-06-25T05:47:27.566Z,89.45
2023-06-25T05:47:59.056Z,89.28
2023-06-25T05:48:30.614Z,87.65
2023-06-25T05:49:02.204Z,87.44
2023-06-25T05:49:33.687Z,87.38
2023-06-25T05:50:05.722Z,86.97
2023-06-25T05:50:37.152Z,87.07
2023-06-25T05:51:08.729Z,87.61
2023-06-25T05:51:40.151Z,86.58
2023-06-25T05:52:11.606Z,86.84
2023-06-25T05:52:44.025Z,86.72
2023-06-25T05:53:15.573Z,86.98
2023-06-25T05:53:47.127Z,86.35
2023-06-25T05:54:18.585Z,86.80
2023-06-25T05:54:50.066Z,87.39
2023-06-25T05:55:21.511Z,87.44
2023-06-25T05:55:53.002Z,87.73
2023-06-25T05:56:24.494Z,87.22
2023-06-25T05:56:55.986Z,87.67
2023-06-25T05:57:27.397Z,89.24
2023-06-25T05:57:58.822Z,88.14
2023-06-25T05:58:30.198Z,87.04
2023-06-25T05:59:01.622Z,85.76
2023-06-25T05:59:33.101Z,85.32
2023-06-25T06:00:05.652Z,86.51
2023-06-25T06:00:37.104Z,86.00
2023-06-25T06:01:08.590Z,85.89
2023-06-25T06:01:40.144Z,86.02
2023-06-25T06:02:11.680Z,85.36
2023-06-25T06:02:43.164Z,86.24
2023-06-25T06:03:14.780Z,86.51
2023-06-25T06:03:46.427Z,86.03
2023-06-25T06:04:20.530Z,85.14
2023-06-25T06:04:52.344Z,87.25
2023-06-25T06:05:23.795Z,86.33
2023-06-25T06:05:57.695Z,85.66
2023-06-25T06:06:29.127Z,84.62
2023-06-25T06:07:00.881Z,83.72
2023-06-25T06:07:32.414Z,84.90
2023-06-25T06:08:04.031Z,84.93
2023-06-25T06:08:35.466Z,84.57
2023-06-25T06:09:06.876Z,84.57
2023-06-25T06:09:38.283Z,85.04
2023-06-25T06:10:10.303Z,85.47
2023-06-25T06:10:41.762Z,86.13
2023-06-25T06:11:13.203Z,83.63
2023-06-25T06:11:44.638Z,82.23
2023-06-25T06:12:16.091Z,80.87
2023-06-25T06:12:47.470Z,80.84
2023-06-25T06:13:18.981Z,80.77
2023-06-25T06:13:50.380Z,81.09
2023-06-25T06:14:22.099Z,80.93
2023-06-25T06:14:53.661Z,80.27
2023-06-25T06:15:25.069Z,82.39
2023-06-25T06:15:56.474Z,81.72
2023-06-25T06:16:27.887Z,79.85
2023-06-25T06:16:59.338Z,80.50
2023-06-25T06:17:30.888Z,79.18
2023-06-25T06:18:02.412Z,79.40
2023-06-25T06:18:33.898Z,80.06
2023-06-25T06:19:05.379Z,79.93
2023-06-25T06:19:36.993Z,79.61
2023-06-25T06:20:08.854Z,79.59
2023-06-25T06:20:40.286Z,80.22
2023-06-25T06:21:11.746Z,79.60
2023-06-25T06:21:43.242Z,79.63
2023-06-25T06:22:15.657Z,78.58
2023-06-25T06:22:47.106Z,77.64
2023-06-25T06:23:18.642Z,77.22
2023-06-25T06:23:50.124Z,77.77
2023-06-25T06:24:21.577Z,77.40
2023-06-25T06:24:53.294Z,78.13
2023-06-25T06:25:24.748Z,78.93
2023-06-25T06:25:56.197Z,78.04
2023-06-25T06:26:27.773Z,77.11
2023-06-25T06:27:00.177Z,77.11
2023-06-25T06:27:31.868Z,76.88
2023-06-25T06:28:03.445Z,77.10
2023-06-25T06:28:34.906Z,76.98
2023-06-25T06:29:06.397Z,77.20
2023-06-25T06:29:37.922Z,75.81
2023-06-25T06:30:09.865Z,76.34
2023-06-25T06:30:41.429Z,75.88
2023-06-25T06:31:13.054Z,76.12
2023-06-25T06:31:44.530Z,76.68
2023-06-25T06:32:15.947Z,75.81
2023-06-25T06:32:47.467Z,77.28
2023-06-25T06:33:18.950Z,75.80
2023-06-25T06:33:50.371Z,75.93
2023-06-25T06:34:21.830Z,75.22
2023-06-25T06:34:53.213Z,76.71
2023-06-25T06:35:24.671Z,75.51
2023-06-25T06:35:56.078Z,75.87
2023-06-25T06:36:27.532Z,76.67
2023-06-25T06:36:58.921Z,76.70
2023-06-25T06:37:30.281Z,77.46
2023-06-25T06:38:01.817Z,77.67
2023-06-25T06:38:33.360Z,76.96
2023-06-25T06:39:04.814Z,77.44
2023-06-25T06:39:36.271Z,76.18
2023-06-25T06:40:08.210Z,75.71
2023-06-25T06:40:39.683Z,75.14
2023-06-25T06:41:11.107Z,75.44
2023-06-25T06:41:42.571Z,75.99
2023-06-25T06:42:13.975Z,74.64
2023-06-25T06:42:45.399Z,75.17
2023-06-25T06:43:16.952Z,75.12
2023-06-25T06:43:48.474Z,75.00
2023-06-25T06:44:20.418Z,74.01
2023-06-25T06:44:51.861Z,73.04
2023-06-25T06:45:23.342Z,72.13
2023-06-25T06:45:54.778Z,72.85
2023-06-25T06:46:26.269Z,72.35
2023-06-25T06:46:57.730Z,71.16
2023-06-25T06:47:29.409Z,72.74
2023-06-25T06:48:00.909Z,72.59
2023-06-25T06:48:32.350Z,71.68
2023-06-25T06:49:03.769Z,71.83
2023-06-25T06:49:35.222Z,71.98
2023-06-25T06:50:07.862Z,70.28
2023-06-25T06:50:39.283Z,70.30
2023-06-25T06:51:10.676Z,68.35
2023-06-25T06:51:42.344Z,68.52
2023-06-25T06:52:16.360Z,68.83
2023-06-25T06:52:47.781Z,68.87
2023-06-25T06:53:19.193Z,67.93